Main page
METAR-TAF:

METAR-TAF

Airports :

Okadama Airport

Sapporo, Japan

latitude: 43-07N, longitude: 141-23E, elevation: 8 m

Current weather observation

The report was made 6 hours and 49 minutes ago, at 11:00 UTC
Wind 3 kt from the Northwest
Temperature -5°C
Humidity 73%
Pressure 1024 hPa
Visibility 10 km or more
Few clouds at a height of 1500 ft
Broken clouds at a height of 4000 ft

METAR: RJCO 061100Z 31003KT 9999 FEW015 BKN040 M05/M09 Q1024

Time: 02:49 (17:49 UTC)


TAF: missing

Weather observations and forecasts of more than 4000 airports (METAR and TAF reports).

The available stations are represented by yellow and red dots on the map.

Hover mouse over dot to see the name of the station.

Then click to see weather observations and forecasts.

To change the map : click on the green buttons with a black cross to zoom in, on the green button with a dash to zoom out, or on the green arrows for adjacent maps.


METAR-TAF: